Buoy 54955

sailwx.info

Track history (hours):
 
Tides and Currents Weather Stations Pressure Air Temp Water Temp Dewpoint Dewpoint Depression Visibility Wind Speed Wind Dir Waves Ship Positions

Luruyu54955

Last reported at 2016-Aug-30 13:00 UTC. Time now 2016-Aug-30 15:01 UTC.
Position S 34°24' W 149°37'.

Length 27 m.

Type: Fishing. MMSI: 412330945.

Barometer 1020.3 mb
Water temperature 15.5 ° C

Date/timePositionNaut miles runAvg speedWind from/ knotsBaromVisibWave heightAir tempDewpointWater temp
2016-Aug-30 13:00S 34°24' W 149°37'0 0.0 1020.3 15.5
2016-Aug-30 12:00S 34°24' W 149°37'2 1.0 1020.3 15.4
2016-Aug-30 10:00S 34°25' W 149°39'1 0.2 1020.7 15.4
2016-Aug-30 07:00S 34°25' W 149°38'1 0.7 1020.7 15.4
2016-Aug-30 06:00S 34°26' W 149°39'1 1.2 1020.2 15.4
2016-Aug-30 05:00S 34°26' W 149°40'1 0.9 1020.4 15.4
2016-Aug-30 04:00S 34°27' W 149°40'0 0.3 1019.5 15.4
2016-Aug-30 03:00S 34°27' W 149°40'2 1.9 1019.0 15.4
2016-Aug-30 02:00S 34°28' W 149°42'0 0.0 1018.5 15.4
2016-Aug-30 01:00S 34°28' W 149°42'2 1.1 1018.1 15.3
2016-Aug-29 23:00S 34°29' W 149°44'4 0.4 1017.6 15.3
2016-Aug-29 12:00S 34°34' W 149°45'3 1.6 1013.2 15.5
2016-Aug-29 10:00S 34°35' W 149°48'1 0.4 1012.9 15.5
2016-Aug-29 08:00S 34°35' W 149°49'0 0.0 1012.4 15.5
2016-Aug-29 07:00S 34°35' W 149°49'1 1.1 1012.3 15.5
2016-Aug-29 06:00S 34°36' W 149°50'1 0.9 1011.9 15.5
2016-Aug-29 05:00S 34°36' W 149°51'0 0.3 1011.5 15.4
2016-Aug-29 04:00S 34°37' W 149°51'2 2.4 1011.0 15.3
2016-Aug-29 03:00S 34°38' W 149°54'0 0.0 1010.4 15.3
2016-Aug-29 02:00S 34°38' W 149°54'0 0.0 1010.2 15.3
2016-Aug-29 01:00S 34°38' W 149°54'1 0.5 1010.2 15.4
2016-Aug-28 23:00S 34°38' W 149°55'5 1.4 1010.3 15.4
2016-Aug-28 19:00S 34°41' W 150°01'0 0.0 1011.4 15.4
2016-Aug-28 18:00S 34°41' W 150°01'1 1.3 1011.0 15.4
2016-Aug-28 17:00S 34°42' W 150°02'1 0.7 1010.5 15.5
2016-Aug-28 16:00S 34°42' W 150°02'0 0.1 1010.5 15.5
2016-Aug-28 15:00S 34°42' W 150°02'2 1.2 1010.6 15.5
2016-Aug-28 13:00S 34°43' W 150°05'4 1.3 1011.0 15.6
2016-Aug-28 10:00S 34°44' W 150°09'0 0.0 1012.3 15.7
2016-Aug-28 09:00S 34°44' W 150°09'2 1.8 1012.5 15.8
2016-Aug-28 08:00S 34°44' W 150°12'1 1.0 1013.8 15.8
2016-Aug-28 07:00S 34°44' W 150°13'1 0.8 1014.7 15.9
2016-Aug-28 06:00S 34°44' W 150°13'0 0.4 1015.2 15.9
2016-Aug-28 05:00S 34°44' W 150°14'1 0.7 1016.1 15.9
2016-Aug-28 04:00S 34°43' W 150°15'1 0.8 1016.6 15.9
2016-Aug-28 03:00S 34°44' W 150°15'1 1.5 1017.0 15.8
2016-Aug-28 02:00S 34°43' W 150°17'0 0.0 1017.6 15.8
2016-Aug-28 01:00S 34°43' W 150°17'2 1.1 1018.3 15.8
2016-Aug-27 23:00S 34°41' W 150°18'0 0.0 1019.9 15.7
2016-Aug-27 20:00S 34°41' W 150°18'1 0.9 1022.7 15.5
2016-Aug-27 19:00S 34°40' W 150°19'1 1.5 1023.5 15.5
2016-Aug-27 18:00S 34°40' W 150°21'0 0.0 1023.4 15.5
2016-Aug-27 17:00S 34°40' W 150°21'1 0.9 1024.1 15.5
2016-Aug-27 16:00S 34°40' W 150°20'2 1.6 1023.8 15.5
2016-Aug-27 15:00S 34°39' W 150°21'0 0.0 1023.8 15.5
2016-Aug-27 14:00S 34°39' W 150°21'1 0.6 1024.2 15.5
2016-Aug-27 13:00S 34°39' W 150°22'1 0.3 1024.3 15.6
2016-Aug-27 11:00S 34°39' W 150°22'2 0.7 1025.9 15.6
2016-Aug-27 08:00S 34°38' W 150°25'0 0.5 1027.7 15.6
2016-Aug-27 07:00S 34°38' W 150°24'2 1.6 1026.6 15.6
2016-Aug-27 06:00S 34°38' W 150°26'1 0.2 1027.2 15.6
2016-Aug-27 03:00S 34°38' W 150°25'1 0.5 1026.4 15.6
2016-Aug-27 01:00S 34°37' W 150°26'1 1.1 1026.0 15.6
2016-Aug-27 00:00S 34°37' W 150°27'1 0.1 1025.8 15.6
2016-Aug-26 18:00S 34°37' W 150°28'1 0.5 1026.0 15.5
2016-Aug-26 17:00S 34°37' W 150°27'0 0.0 1025.4 15.5
2016-Aug-26 16:00S 34°37' W 150°27'1 0.8 1024.1 15.5
2016-Aug-26 15:00S 34°37' W 150°28'0 0.2 1023.4 15.5
2016-Aug-26 14:00S 34°37' W 150°28'0 0.0 1022.6 15.5
2016-Aug-26 13:00S 34°37' W 150°28'0 0.2 1022.0 15.5
2016-Aug-26 11:00S 34°38' W 150°28'0 0.1 1021.4 15.5
2016-Aug-26 07:00S 34°38' W 150°28'0 0.4 1018.2 15.5
2016-Aug-26 06:00S 34°38' W 150°29'1 0.9 1017.5 15.5
2016-Aug-26 05:00S 34°39' W 150°28'1 0.6 1016.2 15.6
2016-Aug-26 03:00S 34°40' W 150°28'0 0.3 1013.1 15.8
2016-Aug-26 02:00S 34°40' W 150°28'0 0.4 1011.8 15.8
2016-Aug-26 01:00S 34°40' W 150°29'1 0.6 1011.1 15.9
2016-Aug-26 00:00S 34°41' W 150°28'3 0.6 1010.8 15.9
2016-Aug-25 19:00S 34°42' W 150°32'0 0.0 1011.6 15.8
2016-Aug-25 18:00S 34°42' W 150°32'1 0.7 1011.4 15.8
2016-Aug-25 16:00S 34°41' W 150°32'0 0.1 1010.9 15.8
2016-Aug-25 14:00S 34°41' W 150°32'1 0.2 1010.5 15.8
2016-Aug-25 11:00S 34°41' W 150°33'1 0.4 1011.5 15.8
2016-Aug-25 08:00S 34°41' W 150°31'0 0.5 1011.8 15.8
2016-Aug-25 07:00S 34°41' W 150°32'0 0.0 1011.8 15.9
2016-Aug-25 06:00S 34°41' W 150°32'1 0.3 1011.4 15.9
2016-Aug-25 04:00S 34°41' W 150°32'1 0.7 1010.0 16.0
2016-Aug-25 03:00S 34°42' W 150°32'1 0.6 1010.7 16.2
2016-Aug-25 02:00S 34°42' W 150°32'0 0.0 1009.4 16.2
2016-Aug-25 00:00S 34°42' W 150°32'2 0.3 1009.8 16.2
2016-Aug-24 19:00S 34°43' W 150°34'1 0.7 1011.6 15.9
2016-Aug-24 18:00S 34°44' W 150°35'0 0.2 1011.5 15.8
2016-Aug-24 16:00S 34°44' W 150°35'1 0.5 1010.8 15.9
2016-Aug-24 14:00S 34°44' W 150°36'1 0.5 1010.8 15.9
2016-Aug-24 11:00S 34°44' W 150°38'0 0.0 1010.5 15.9
2016-Aug-24 09:00S 34°44' W 150°38'1 0.9 1011.1 16.0
2016-Aug-24 08:00S 34°43' W 150°37'0 0.0 1011.3 16.0
2016-Aug-24 07:00S 34°43' W 150°37'0 0.4 1010.8 16.0
2016-Aug-24 06:00S 34°43' W 150°37'1 0.5 1011.3 16.0
2016-Aug-24 05:00S 34°44' W 150°37'1 0.9 1010.6 16.0
2016-Aug-24 04:00S 34°45' W 150°37'1 1.0 1010.3 16.0
2016-Aug-24 03:00S 34°46' W 150°37'3 2.6 1010.0 16.1
2016-Aug-24 02:00S 34°47' W 150°39'0 0.0 1009.8 16.1
2016-Aug-24 00:00S 34°47' W 150°39'5 0.8 1008.8 16.1
2016-Aug-23 18:00S 34°49' W 150°45'1 0.5 1007.0 16.1
2016-Aug-23 17:00S 34°49' W 150°45'0 0.1 1005.9 16.1
2016-Aug-23 16:00S 34°49' W 150°45'0 0.0 1005.1 16.1
2016-Aug-23 15:00S 34°49' W 150°45'2 1.5 1004.5 16.1
2016-Aug-23 14:00S 34°49' W 150°47'1 0.6 1004.0 16.2
2016-Aug-23 12:00S 34°48' W 150°49'1 0.2 1004.7 16.2
2016-Aug-23 08:00S 34°48' W 150°49'0 0.4 1006.4 16.3
2016-Aug-23 07:00S 34°48' W 150°50'1 0.5 1006.6 16.3
2016-Aug-23 05:00S 34°49' W 150°51'1 1.0 1006.3 16.4
2016-Aug-23 04:00S 34°49' W 150°52'1 0.7 1006.1 16.4
2016-Aug-23 03:00S 34°50' W 150°52'0 0.0 1005.9 16.4
2016-Aug-23 02:00S 34°50' W 150°52'2 0.8 1005.9 16.5
2016-Aug-23 00:00S 34°50' W 150°54'4 0.6 1005.9 16.5
2016-Aug-22 17:00S 34°50' W 150°59'0 0.4 1007.8 16.3
2016-Aug-22 16:00S 34°49' W 150°60'0 0.2 1008.0 16.3
2016-Aug-22 15:00S 34°50' W 150°60'1 0.7 1008.2 16.3
2016-Aug-22 14:00S 34°50' W 150°59'0 0.1 1008.0 16.3
2016-Aug-22 08:00S 34°50' W 150°59'1 0.8 1011.3 16.3
2016-Aug-22 07:00S 34°50' W 150°58'0 0.0 1011.6 16.3
2016-Aug-22 06:00S 34°50' W 150°58'2 1.7 1011.6 16.2
2016-Aug-22 05:00S 34°49' W 151°00'0 0.0 1011.6 16.2
2016-Aug-22 04:00S 34°49' W 151°00'1 0.8 1010.2 16.2
2016-Aug-22 03:00S 34°49' W 150°59'1 1.0 1012.1 16.0
2016-Aug-22 02:00S 34°49' W 151°00'0 0.0 1012.1 16.0
2016-Aug-22 01:00S 34°49' W 151°00'3 0.5 1012.9 16.0
2016-Aug-21 19:00S 34°47' W 150°57'0 0.3 1017.6 16.0
2016-Aug-21 18:00S 34°47' W 150°57'2 1.5 1017.7 16.0
2016-Aug-21 17:00S 34°47' W 150°55'0 0.3 1017.9 16.0
2016-Aug-21 16:00S 34°47' W 150°55'1 0.9 1017.8 16.0
2016-Aug-21 15:00S 34°48' W 150°54'1 1.1 1017.5 16.0
2016-Aug-21 14:00S 34°49' W 150°53'1 0.5 1017.3 16.0
2016-Aug-21 12:00S 34°50' W 150°54'0 0.2 1016.7 16.0
2016-Aug-21 10:00S 34°50' W 150°54'0 0.0 1018.1 16.0
2016-Aug-21 09:00S 34°50' W 150°54'0 0.1 1017.8 16.0
2016-Aug-21 06:00S 34°50' W 150°54'0 0.4 1016.6 15.9
2016-Aug-21 05:00S 34°50' W 150°55'0 0.3 1016.1 15.9
2016-Aug-21 04:00S 34°50' W 150°54'0 0.4 1015.5 15.9
2016-Aug-21 03:00S 34°50' W 150°54'1 0.7 1014.1 16.0
2016-Aug-21 01:00S 34°49' W 150°53'0 0.0 1013.6 16.0
2016-Aug-20 23:00S 34°49' W 150°53'1 0.3 1012.4 16.1
2016-Aug-20 19:00S 34°50' W 150°52'0 0.2 1010.5 16.2
2016-Aug-20 17:00S 34°50' W 150°52'1 0.6 1008.0 16.2
2016-Aug-20 16:00S 34°51' W 150°52'   1007.3 16.2
Track history (hours):
 
Tides and Currents Weather Stations Pressure Air Temp Water Temp Dewpoint Dewpoint Depression Visibility Wind Speed Wind Dir Waves Ship Positions

Luruyu54955

Last reported at 2016-Aug-30 13:00 UTC. Time now 2016-Aug-30 15:01 UTC.
Position S 34°24' W 149°37'.

Length 27 m.

Type: Fishing. MMSI: 412330945.

Barometer 1020.3 mb
Water temperature 15.5 ° C

Date/timePositionNaut miles runAvg speedWind from/ knotsBaromVisibWave heightAir tempDewpointWater temp
2016-Aug-30 13:00S 34°24' W 149°37'0 0.0 1020.3 15.5
2016-Aug-30 12:00S 34°24' W 149°37'2 1.0 1020.3 15.4
2016-Aug-30 10:00S 34°25' W 149°39'1 0.2 1020.7 15.4
2016-Aug-30 07:00S 34°25' W 149°38'1 0.7 1020.7 15.4
2016-Aug-30 06:00S 34°26' W 149°39'1 1.2 1020.2 15.4
2016-Aug-30 05:00S 34°26' W 149°40'1 0.9 1020.4 15.4
2016-Aug-30 04:00S 34°27' W 149°40'0 0.3 1019.5 15.4
2016-Aug-30 03:00S 34°27' W 149°40'2 1.9 1019.0 15.4
2016-Aug-30 02:00S 34°28' W 149°42'0 0.0 1018.5 15.4
2016-Aug-30 01:00S 34°28' W 149°42'2 1.1 1018.1 15.3
2016-Aug-29 23:00S 34°29' W 149°44'4 0.4 1017.6 15.3
2016-Aug-29 12:00S 34°34' W 149°45'3 1.6 1013.2 15.5
2016-Aug-29 10:00S 34°35' W 149°48'1 0.4 1012.9 15.5
2016-Aug-29 08:00S 34°35' W 149°49'0 0.0 1012.4 15.5
2016-Aug-29 07:00S 34°35' W 149°49'1 1.1 1012.3 15.5
2016-Aug-29 06:00S 34°36' W 149°50'1 0.9 1011.9 15.5
2016-Aug-29 05:00S 34°36' W 149°51'0 0.3 1011.5 15.4
2016-Aug-29 04:00S 34°37' W 149°51'2 2.4 1011.0 15.3
2016-Aug-29 03:00S 34°38' W 149°54'0 0.0 1010.4 15.3
2016-Aug-29 02:00S 34°38' W 149°54'0 0.0 1010.2 15.3
2016-Aug-29 01:00S 34°38' W 149°54'1 0.5 1010.2 15.4
2016-Aug-28 23:00S 34°38' W 149°55'5 1.4 1010.3 15.4
2016-Aug-28 19:00S 34°41' W 150°01'0 0.0 1011.4 15.4
2016-Aug-28 18:00S 34°41' W 150°01'1 1.3 1011.0 15.4
2016-Aug-28 17:00S 34°42' W 150°02'1 0.7 1010.5 15.5
2016-Aug-28 16:00S 34°42' W 150°02'0 0.1 1010.5 15.5
2016-Aug-28 15:00S 34°42' W 150°02'2 1.2 1010.6 15.5
2016-Aug-28 13:00S 34°43' W 150°05'4 1.3 1011.0 15.6
2016-Aug-28 10:00S 34°44' W 150°09'0 0.0 1012.3 15.7
2016-Aug-28 09:00S 34°44' W 150°09'2 1.8 1012.5 15.8
2016-Aug-28 08:00S 34°44' W 150°12'1 1.0 1013.8 15.8
2016-Aug-28 07:00S 34°44' W 150°13'1 0.8 1014.7 15.9
2016-Aug-28 06:00S 34°44' W 150°13'0 0.4 1015.2 15.9
2016-Aug-28 05:00S 34°44' W 150°14'1 0.7 1016.1 15.9
2016-Aug-28 04:00S 34°43' W 150°15'1 0.8 1016.6 15.9
2016-Aug-28 03:00S 34°44' W 150°15'1 1.5 1017.0 15.8
2016-Aug-28 02:00S 34°43' W 150°17'0 0.0 1017.6 15.8
2016-Aug-28 01:00S 34°43' W 150°17'2 1.1 1018.3 15.8
2016-Aug-27 23:00S 34°41' W 150°18'0 0.0 1019.9 15.7
2016-Aug-27 20:00S 34°41' W 150°18'1 0.9 1022.7 15.5
2016-Aug-27 19:00S 34°40' W 150°19'1 1.5 1023.5 15.5
2016-Aug-27 18:00S 34°40' W 150°21'0 0.0 1023.4 15.5
2016-Aug-27 17:00S 34°40' W 150°21'1 0.9 1024.1 15.5
2016-Aug-27 16:00S 34°40' W 150°20'2 1.6 1023.8 15.5
2016-Aug-27 15:00S 34°39' W 150°21'0 0.0 1023.8 15.5
2016-Aug-27 14:00S 34°39' W 150°21'1 0.6 1024.2 15.5
2016-Aug-27 13:00S 34°39' W 150°22'1 0.3 1024.3 15.6
2016-Aug-27 11:00S 34°39' W 150°22'2 0.7 1025.9 15.6
2016-Aug-27 08:00S 34°38' W 150°25'0 0.5 1027.7 15.6
2016-Aug-27 07:00S 34°38' W 150°24'2 1.6 1026.6 15.6
2016-Aug-27 06:00S 34°38' W 150°26'1 0.2 1027.2 15.6
2016-Aug-27 03:00S 34°38' W 150°25'1 0.5 1026.4 15.6
2016-Aug-27 01:00S 34°37' W 150°26'1 1.1 1026.0 15.6
2016-Aug-27 00:00S 34°37' W 150°27'1 0.1 1025.8 15.6
2016-Aug-26 18:00S 34°37' W 150°28'1 0.5 1026.0 15.5
2016-Aug-26 17:00S 34°37' W 150°27'0 0.0 1025.4 15.5
2016-Aug-26 16:00S 34°37' W 150°27'1 0.8 1024.1 15.5
2016-Aug-26 15:00S 34°37' W 150°28'0 0.2 1023.4 15.5
2016-Aug-26 14:00S 34°37' W 150°28'0 0.0 1022.6 15.5
2016-Aug-26 13:00S 34°37' W 150°28'0 0.2 1022.0 15.5
2016-Aug-26 11:00S 34°38' W 150°28'0 0.1 1021.4 15.5
2016-Aug-26 07:00S 34°38' W 150°28'0 0.4 1018.2 15.5
2016-Aug-26 06:00S 34°38' W 150°29'1 0.9 1017.5 15.5
2016-Aug-26 05:00S 34°39' W 150°28'1 0.6 1016.2 15.6
2016-Aug-26 03:00S 34°40' W 150°28'0 0.3 1013.1 15.8
2016-Aug-26 02:00S 34°40' W 150°28'0 0.4 1011.8 15.8
2016-Aug-26 01:00S 34°40' W 150°29'1 0.6 1011.1 15.9
2016-Aug-26 00:00S 34°41' W 150°28'3 0.6 1010.8 15.9
2016-Aug-25 19:00S 34°42' W 150°32'0 0.0 1011.6 15.8
2016-Aug-25 18:00S 34°42' W 150°32'1 0.7 1011.4 15.8
2016-Aug-25 16:00S 34°41' W 150°32'0 0.1 1010.9 15.8
2016-Aug-25 14:00S 34°41' W 150°32'1 0.2 1010.5 15.8
2016-Aug-25 11:00S 34°41' W 150°33'1 0.4 1011.5 15.8
2016-Aug-25 08:00S 34°41' W 150°31'0 0.5 1011.8 15.8
2016-Aug-25 07:00S 34°41' W 150°32'0 0.0 1011.8 15.9
2016-Aug-25 06:00S 34°41' W 150°32'1 0.3 1011.4 15.9
2016-Aug-25 04:00S 34°41' W 150°32'1 0.7 1010.0 16.0
2016-Aug-25 03:00S 34°42' W 150°32'1 0.6 1010.7 16.2
2016-Aug-25 02:00S 34°42' W 150°32'0 0.0 1009.4 16.2
2016-Aug-25 00:00S 34°42' W 150°32'2 0.3 1009.8 16.2
2016-Aug-24 19:00S 34°43' W 150°34'1 0.7 1011.6 15.9
2016-Aug-24 18:00S 34°44' W 150°35'0 0.2 1011.5 15.8
2016-Aug-24 16:00S 34°44' W 150°35'1 0.5 1010.8 15.9
2016-Aug-24 14:00S 34°44' W 150°36'1 0.5 1010.8 15.9
2016-Aug-24 11:00S 34°44' W 150°38'0 0.0 1010.5 15.9
2016-Aug-24 09:00S 34°44' W 150°38'1 0.9 1011.1 16.0
2016-Aug-24 08:00S 34°43' W 150°37'0 0.0 1011.3 16.0
2016-Aug-24 07:00S 34°43' W 150°37'0 0.4 1010.8 16.0
2016-Aug-24 06:00S 34°43' W 150°37'1 0.5 1011.3 16.0
2016-Aug-24 05:00S 34°44' W 150°37'1 0.9 1010.6 16.0
2016-Aug-24 04:00S 34°45' W 150°37'1 1.0 1010.3 16.0
2016-Aug-24 03:00S 34°46' W 150°37'3 2.6 1010.0 16.1
2016-Aug-24 02:00S 34°47' W 150°39'0 0.0 1009.8 16.1
2016-Aug-24 00:00S 34°47' W 150°39'5 0.8 1008.8 16.1
2016-Aug-23 18:00S 34°49' W 150°45'1 0.5 1007.0 16.1
2016-Aug-23 17:00S 34°49' W 150°45'0 0.1 1005.9 16.1
2016-Aug-23 16:00S 34°49' W 150°45'0 0.0 1005.1 16.1
2016-Aug-23 15:00S 34°49' W 150°45'2 1.5 1004.5 16.1
2016-Aug-23 14:00S 34°49' W 150°47'1 0.6 1004.0 16.2
2016-Aug-23 12:00S 34°48' W 150°49'1 0.2 1004.7 16.2
2016-Aug-23 08:00S 34°48' W 150°49'0 0.4 1006.4 16.3
2016-Aug-23 07:00S 34°48' W 150°50'1 0.5 1006.6 16.3
2016-Aug-23 05:00S 34°49' W 150°51'1 1.0 1006.3 16.4
2016-Aug-23 04:00S 34°49' W 150°52'1 0.7 1006.1 16.4
2016-Aug-23 03:00S 34°50' W 150°52'0 0.0 1005.9 16.4
2016-Aug-23 02:00S 34°50' W 150°52'2 0.8 1005.9 16.5
2016-Aug-23 00:00S 34°50' W 150°54'4 0.6 1005.9 16.5
2016-Aug-22 17:00S 34°50' W 150°59'0 0.4 1007.8 16.3
2016-Aug-22 16:00S 34°49' W 150°60'0 0.2 1008.0 16.3
2016-Aug-22 15:00S 34°50' W 150°60'1 0.7 1008.2 16.3
2016-Aug-22 14:00S 34°50' W 150°59'0 0.1 1008.0 16.3
2016-Aug-22 08:00S 34°50' W 150°59'1 0.8 1011.3 16.3
2016-Aug-22 07:00S 34°50' W 150°58'0 0.0 1011.6 16.3
2016-Aug-22 06:00S 34°50' W 150°58'2 1.7 1011.6 16.2
2016-Aug-22 05:00S 34°49' W 151°00'0 0.0 1011.6 16.2
2016-Aug-22 04:00S 34°49' W 151°00'1 0.8 1010.2 16.2
2016-Aug-22 03:00S 34°49' W 150°59'1 1.0 1012.1 16.0
2016-Aug-22 02:00S 34°49' W 151°00'0 0.0 1012.1 16.0
2016-Aug-22 01:00S 34°49' W 151°00'3 0.5 1012.9 16.0
2016-Aug-21 19:00S 34°47' W 150°57'0 0.3 1017.6 16.0
2016-Aug-21 18:00S 34°47' W 150°57'2 1.5 1017.7 16.0
2016-Aug-21 17:00S 34°47' W 150°55'0 0.3 1017.9 16.0
2016-Aug-21 16:00S 34°47' W 150°55'1 0.9 1017.8 16.0
2016-Aug-21 15:00S 34°48' W 150°54'1 1.1 1017.5 16.0
2016-Aug-21 14:00S 34°49' W 150°53'1 0.5 1017.3 16.0
2016-Aug-21 12:00S 34°50' W 150°54'0 0.2 1016.7 16.0
2016-Aug-21 10:00S 34°50' W 150°54'0 0.0 1018.1 16.0
2016-Aug-21 09:00S 34°50' W 150°54'0 0.1 1017.8 16.0
2016-Aug-21 06:00S 34°50' W 150°54'0 0.4 1016.6 15.9
2016-Aug-21 05:00S 34°50' W 150°55'0 0.3 1016.1 15.9
2016-Aug-21 04:00S 34°50' W 150°54'0 0.4 1015.5 15.9
2016-Aug-21 03:00S 34°50' W 150°54'1 0.7 1014.1 16.0
2016-Aug-21 01:00S 34°49' W 150°53'0 0.0 1013.6 16.0
2016-Aug-20 23:00S 34°49' W 150°53'1 0.3 1012.4 16.1
2016-Aug-20 19:00S 34°50' W 150°52'0 0.2 1010.5 16.2
2016-Aug-20 17:00S 34°50' W 150°52'1 0.6 1008.0 16.2
2016-Aug-20 16:00S 34°51' W 150°52'   1007.3 16.2

Dump ship's entire track history